Time;durP1;ratioP1;P1;durP2;ratioP2;P2;SDS_P1;SDS_P2;PMS_P1;PMS_P2;Temp;Humidity;BMP_temperature;BMP_pressure;BME280_temperature;BME280_humidity;BME280_pressure;Samples;Min_cycle;Max_cycle;Signal;HPM_P1;HPM_P2
2021/12/31 09:23:57;;;;;;;0;0;;;;;;;0;0;0;;;;
2021/12/31 09:24:58;;;;;;;0;0;;;;;;;0;0;0;;;;
2021/12/31 09:26:00;;;;;;;0;0;;;;;;;0;0;0;;;;
2021/12/31 09:27:01;;;;;;;0;0;;;;;;;0;0;0;;;;
2021/12/31 09:28:02;;;;;;;0;0;;;;;;;0;0;0;;;;
2021/12/31 09:29:03;;;;;;;0;0;;;;;;;0;0;0;;;;
2021/12/31 09:30:03;;;;;;;0;0;;;;;;;0;0;0;;;;
2021/12/31 09:31:07;;;;;;;0;0;;;;;;;0;0;0;;;;
2021/12/31 09:32:09;;;;;;;0;0;;;;;;;0;0;0;;;;
2021/12/31 09:33:09;;;;;;;0;0;;;;;;;0;0;0;;;;
2021/12/31 09:34:10;;;;;;;0;0;;;;;;;0;0;0;;;;
2021/12/31 09:35:10;;;;;;;0;0;;;;;;;0;0;0;;;;
2021/12/31 09:36:11;;;;;;;0;0;;;;;;;0;0;0;;;;
2021/12/31 09:37:12;;;;;;;0;0;;;;;;;0;0;0;;;;
2021/12/31 09:38:12;;;;;;;0;0;;;;;;;0;0;0;;;;
2021/12/31 09:39:13;;;;;;;0;0;;;;;;;0;0;0;;;;
2021/12/31 09:40:18;;;;;;;0;0;;;;;;;0;0;0;;;;
2021/12/31 09:41:18;;;;;;;0;0;;;;;;;0;0;0;;;;
2021/12/31 09:42:19;;;;;;;0;0;;;;;;;0;0;0;;;;
2021/12/31 09:43:19;;;;;;;0;0;;;;;;;0;0;0;;;;
2021/12/31 09:44:21;;;;;;;0;0;;;;;;;0;0;0;;;;
2021/12/31 09:45:22;;;;;;;0;0;;;;;;;0;0;0;;;;
2021/12/31 09:46:23;;;;;;;0;0;;;;;;;0;0;0;;;;
2021/12/31 09:47:24;;;;;;;0;0;;;;;;;0;0;0;;;;
2021/12/31 09:48:25;;;;;;;0;0;;;;;;;0;0;0;;;;
2021/12/31 09:49:25;;;;;;;0;0;;;;;;;0;0;0;;;;
2021/12/31 09:50:26;;;;;;;0;0;;;;;;;0;0;0;;;;
2021/12/31 09:51:27;;;;;;;0;0;;;;;;;0;0;0;;;;
2021/12/31 09:52:28;;;;;;;0;0;;;;;;;0;0;0;;;;
2021/12/31 09:53:31;;;;;;;0;0;;;;;;;0;0;0;;;;
2021/12/31 09:54:31;;;;;;;1.3;1.2;;;;;;;18.71;60.67383;95974.27;;;;
2021/12/31 09:55:32;;;;;;;1.3;1.2;;;;;;;18.71;60.67383;95974.27;;;;
2021/12/31 09:56:39;;;;;;;1.3;1.2;;;;;;;18.71;60.67383;95974.27;;;;
2021/12/31 09:57:40;;;;;;;1.3;1.2;;;;;;;18.71;60.67383;95974.27;;;;
2021/12/31 09:58:41;;;;;;;1.3;1.2;;;;;;;18.71;60.67383;95974.27;;;;
2021/12/31 09:59:41;;;;;;;1.3;1.2;;;;;;;18.71;60.67383;95974.27;;;;
2021/12/31 10:00:43;;;;;;;1.3;1.2;;;;;;;18.71;60.67383;95974.27;;;;
2021/12/31 10:01:45;;;;;;;1.3;1.2;;;;;;;18.71;60.67383;95974.27;;;;
2021/12/31 10:02:47;;;;;;;1.3;1.2;;;;;;;18.71;60.67383;95974.27;;;;
2021/12/31 10:04:08;;;;;;;1.3;1.2;;;;;;;18.71;60.67383;95974.27;;;;
2021/12/31 10:05:08;;;;;;;1.7;1.2;;;;;;;18.91;59.57129;95983.06;;;;
2021/12/31 10:06:09;;;;;;;1.7;1.2;;;;;;;18.91;59.57129;95983.06;;;;
2021/12/31 10:07:13;;;;;;;1.7;1.2;;;;;;;18.91;59.57129;95983.06;;;;
2021/12/31 10:08:13;;;;;;;1.7;1.2;;;;;;;18.91;59.57129;95983.06;;;;
2021/12/31 10:09:16;;;;;;;1.7;1.2;;;;;;;18.91;59.57129;95983.06;;;;
2021/12/31 10:10:21;;;;;;;1.7;1.2;;;;;;;18.91;59.57129;95983.06;;;;
2021/12/31 10:11:22;;;;;;;1.7;1.2;;;;;;;18.91;59.57129;95983.06;;;;
2021/12/31 10:12:23;;;;;;;1.7;1.2;;;;;;;18.91;59.57129;95983.06;;;;
2021/12/31 10:13:24;;;;;;;1.7;1.2;;;;;;;18.91;59.57129;95983.06;;;;
2021/12/31 10:14:24;;;;;;;1.7;1.2;;;;;;;18.91;59.57129;95983.06;;;;
2021/12/31 10:15:33;;;;;;;1.7;1.2;;;;;;;18.91;59.57129;95983.06;;;;
2021/12/31 10:16:39;;;;;;;1.25;1.15;;;;;;;19.02;59.06055;95968.31;;;;
2021/12/31 10:17:40;;;;;;;1.25;1.15;;;;;;;19.02;59.06055;95968.31;;;;
2021/12/31 10:18:40;;;;;;;1.25;1.15;;;;;;;19.02;59.06055;95968.31;;;;
2021/12/31 10:19:41;;;;;;;1.25;1.15;;;;;;;19.02;59.06055;95968.31;;;;
2021/12/31 10:20:55;;;;;;;1.25;1.15;;;;;;;19.02;59.06055;95968.31;;;;
2021/12/31 10:21:56;;;;;;;1.25;1.15;;;;;;;19.02;59.06055;95968.31;;;;
2021/12/31 10:22:57;;;;;;;1.25;1.15;;;;;;;19.02;59.06055;95968.31;;;;
2021/12/31 10:24:12;;;;;;;1.25;1.15;;;;;;;19.02;59.06055;95968.31;;;;
2021/12/31 10:25:22;;;;;;;1.25;1.15;;;;;;;19.02;59.06055;95968.31;;;;
2021/12/31 10:26:24;;;;;;;1.25;1.15;;;;;;;19.02;59.06055;95968.31;;;;
2021/12/31 10:27:30;;;;;;;1.3;1.2;;;;;;;19.05;58.65918;95974.59;;;;
2021/12/31 10:28:31;;;;;;;1.3;1.2;;;;;;;19.05;58.65918;95974.59;;;;
2021/12/31 10:29:32;;;;;;;1.3;1.2;;;;;;;19.05;58.65918;95974.59;;;;
2021/12/31 10:30:32;;;;;;;1.3;1.2;;;;;;;19.05;58.65918;95974.59;;;;
2021/12/31 10:31:33;;;;;;;1.3;1.2;;;;;;;19.05;58.65918;95974.59;;;;
2021/12/31 10:32:41;;;;;;;1.3;1.2;;;;;;;19.05;58.65918;95974.59;;;;
2021/12/31 10:33:46;;;;;;;1.3;1.2;;;;;;;19.05;58.65918;95974.59;;;;
2021/12/31 10:34:48;;;;;;;1.3;1.2;;;;;;;19.05;58.65918;95974.59;;;;
2021/12/31 10:35:49;;;;;;;1.3;1.2;;;;;;;19.05;58.65918;95974.59;;;;
2021/12/31 10:36:50;;;;;;;1.3;1.2;;;;;;;19.05;58.65918;95974.59;;;;
2021/12/31 10:37:51;;;;;;;1.3;1.2;;;;;;;19.07;58.5752;95953.67;;;;
2021/12/31 10:38:54;;;;;;;1.3;1.2;;;;;;;19.07;58.5752;95953.67;;;;
2021/12/31 10:39:54;;;;;;;1.3;1.2;;;;;;;19.07;58.5752;95953.67;;;;
2021/12/31 10:40:57;;;;;;;1.3;1.2;;;;;;;19.07;58.5752;95953.67;;;;
2021/12/31 10:42:00;;;;;;;1.3;1.2;;;;;;;19.07;58.5752;95953.67;;;;
2021/12/31 10:43:04;;;;;;;1.3;1.2;;;;;;;19.07;58.5752;95953.67;;;;
2021/12/31 10:44:07;;;;;;;1.3;1.2;;;;;;;19.07;58.5752;95953.67;;;;
2021/12/31 10:45:09;;;;;;;1.3;1.2;;;;;;;19.07;58.5752;95953.67;;;;
2021/12/31 10:46:11;;;;;;;1.3;1.2;;;;;;;19.07;58.5752;95953.67;;;;
2021/12/31 10:47:11;;;;;;;1.3;1.2;;;;;;;19.07;58.5752;95953.67;;;;
2021/12/31 10:48:14;;;;;;;1.3;1.2;;;;;;;19.07;58.5752;95953.67;;;;
2021/12/31 10:49:14;;;;;;;1.3;1.2;;;;;;;19.08;58.29102;95935.75;;;;
2021/12/31 10:50:15;;;;;;;1.3;1.2;;;;;;;19.08;58.29102;95935.75;;;;
2021/12/31 10:51:16;;;;;;;1.3;1.2;;;;;;;19.08;58.29102;95935.75;;;;
2021/12/31 10:52:18;;;;;;;1.3;1.2;;;;;;;19.08;58.29102;95935.75;;;;
2021/12/31 10:53:23;;;;;;;1.3;1.2;;;;;;;19.08;58.29102;95935.75;;;;
2021/12/31 10:54:31;;;;;;;1.3;1.2;;;;;;;19.08;58.29102;95935.75;;;;
2021/12/31 10:55:34;;;;;;;1.3;1.2;;;;;;;19.08;58.29102;95935.75;;;;
2021/12/31 10:56:34;;;;;;;1.3;1.2;;;;;;;19.08;58.29102;95935.75;;;;
2021/12/31 10:57:39;;;;;;;1.3;1.2;;;;;;;19.08;58.29102;95935.75;;;;
2021/12/31 10:58:39;;;;;;;1.3;1.2;;;;;;;19.08;58.29102;95935.75;;;;
2021/12/31 10:59:43;;;;;;;1.15;1.15;;;;;;;19.1;58.05273;95906.57;;;;
2021/12/31 11:00:43;;;;;;;1.15;1.15;;;;;;;19.1;58.05273;95906.57;;;;
2021/12/31 11:01:44;;;;;;;1.15;1.15;;;;;;;19.1;58.05273;95906.57;;;;
2021/12/31 11:02:45;;;;;;;1.15;1.15;;;;;;;19.1;58.05273;95906.57;;;;
2021/12/31 11:03:46;;;;;;;1.15;1.15;;;;;;;19.1;58.05273;95906.57;;;;
2021/12/31 11:04:47;;;;;;;1.15;1.15;;;;;;;19.1;58.05273;95906.57;;;;
2021/12/31 11:05:49;;;;;;;1.15;1.15;;;;;;;19.1;58.05273;95906.57;;;;
2021/12/31 11:06:50;;;;;;;1.15;1.15;;;;;;;19.1;58.05273;95906.57;;;;
2021/12/31 11:07:51;;;;;;;1.15;1.15;;;;;;;19.1;58.05273;95906.57;;;;
2021/12/31 11:08:54;;;;;;;1.15;1.15;;;;;;;19.1;58.05273;95906.57;;;;
2021/12/31 11:09:56;;;;;;;1.15;1.15;;;;;;;19.1;58.05273;95906.57;;;;
2021/12/31 11:10:58;;;;;;;1.2;1.1;;;;;;;19.11;58.00977;95907.4;;;;
2021/12/31 11:12:01;;;;;;;1.2;1.1;;;;;;;19.11;58.00977;95907.4;;;;
2021/12/31 11:13:03;;;;;;;1.2;1.1;;;;;;;19.11;58.00977;95907.4;;;;
2021/12/31 11:14:10;;;;;;;1.2;1.1;;;;;;;19.11;58.00977;95907.4;;;;
2021/12/31 11:15:11;;;;;;;1.2;1.1;;;;;;;19.11;58.00977;95907.4;;;;
2021/12/31 11:16:12;;;;;;;1.2;1.1;;;;;;;19.11;58.00977;95907.4;;;;
2021/12/31 11:17:14;;;;;;;1.2;1.1;;;;;;;19.11;58.00977;95907.4;;;;
2021/12/31 11:18:18;;;;;;;1.2;1.1;;;;;;;19.11;58.00977;95907.4;;;;
2021/12/31 11:19:19;;;;;;;1.2;1.1;;;;;;;19.11;58.00977;95907.4;;;;
2021/12/31 11:20:20;;;;;;;1.2;1.1;;;;;;;19.11;58.00977;95907.4;;;;
2021/12/31 11:21:23;;;;;;;1.2;1.1;;;;;;;19.11;58.00977;95907.4;;;;
2021/12/31 11:22:24;;;;;;;1.3;1.2;;;;;;;19.02;57.47168;95898.92;;;;
2021/12/31 11:23:27;;;;;;;1.3;1.2;;;;;;;19.02;57.47168;95898.92;;;;
2021/12/31 11:24:30;;;;;;;1.3;1.2;;;;;;;19.02;57.47168;95898.92;;;;
2021/12/31 11:25:33;;;;;;;1.3;1.2;;;;;;;19.02;57.47168;95898.92;;;;
2021/12/31 11:26:34;;;;;;;1.3;1.2;;;;;;;19.02;57.47168;95898.92;;;;
2021/12/31 11:27:35;;;;;;;1.3;1.2;;;;;;;19.02;57.47168;95898.92;;;;
2021/12/31 11:28:35;;;;;;;1.3;1.2;;;;;;;19.02;57.47168;95898.92;;;;
2021/12/31 11:29:38;;;;;;;1.3;1.2;;;;;;;19.02;57.47168;95898.92;;;;
2021/12/31 11:30:38;;;;;;;1.3;1.2;;;;;;;19.02;57.47168;95898.92;;;;
2021/12/31 11:31:40;;;;;;;1.3;1.2;;;;;;;19.02;57.47168;95898.92;;;;
2021/12/31 11:32:41;;;;;;;4;1.9;;;;;;;19.07;57.47754;95884.4;;;;
2021/12/31 11:34:16;;;;;;;4;1.9;;;;;;;19.07;57.47754;95884.4;;;;
2021/12/31 11:35:16;;;;;;;4;1.9;;;;;;;19.07;57.47754;95884.4;;;;
2021/12/31 11:36:36;;;;;;;4;1.9;;;;;;;19.07;57.47754;95884.4;;;;
2021/12/31 11:37:37;;;;;;;3.4;2;;;;;;;19.1;57.04199;95886.19;;;;
2021/12/31 11:38:46;;;;;;;3.4;2;;;;;;;19.1;57.04199;95886.19;;;;
2021/12/31 11:39:48;;;;;;;3.4;2;;;;;;;19.1;57.04199;95886.19;;;;
2021/12/31 11:40:50;;;;;;;3.4;2;;;;;;;19.1;57.04199;95886.19;;;;
2021/12/31 11:42:02;;;;;;;3.4;2;;;;;;;19.1;57.04199;95886.19;;;;
2021/12/31 11:43:05;;;;;;;3.4;2;;;;;;;19.1;57.04199;95886.19;;;;
2021/12/31 11:44:25;;;;;;;3.4;2;;;;;;;19.1;57.04199;95886.19;;;;
2021/12/31 11:45:25;;;;;;;3.4;2;;;;;;;19.1;57.04199;95886.19;;;;
2021/12/31 11:46:26;;;;;;;3.4;2;;;;;;;19.1;57.04199;95886.19;;;;
2021/12/31 11:47:37;;;;;;;3.4;2;;;;;;;19.1;57.04199;95886.19;;;;
2021/12/31 11:48:37;;;;;;;2.6;1.85;;;;;;;19.11;57.07813;95883.17;;;;
2021/12/31 11:49:55;;;;;;;2.6;1.85;;;;;;;19.11;57.07813;95883.17;;;;
2021/12/31 11:51:24;;;;;;;2.6;1.85;;;;;;;19.11;57.07813;95883.17;;;;
2021/12/31 11:52:27;;;;;;;2.6;1.85;;;;;;;19.11;57.07813;95883.17;;;;
2021/12/31 11:53:27;;;;;;;2.6;1.85;;;;;;;19.11;57.07813;95883.17;;;;
2021/12/31 11:54:28;;;;;;;2.6;1.85;;;;;;;19.11;57.07813;95883.17;;;;
2021/12/31 11:55:29;;;;;;;2.6;1.85;;;;;;;19.11;57.07813;95883.17;;;;
2021/12/31 11:56:45;;;;;;;2.6;1.85;;;;;;;19.11;57.07813;95883.17;;;;
2021/12/31 11:57:58;;;;;;;2.6;1.85;;;;;;;19.11;57.07813;95883.17;;;;
2021/12/31 11:58:58;;;;;;;2.6;1.85;;;;;;;19.11;57.07813;95883.17;;;;
2021/12/31 12:00:26;;;;;;;2.4;1.65;;;;;;;19.15;57.03906;95864.28;;;;
2021/12/31 12:01:27;;;;;;;2.4;1.65;;;;;;;19.15;57.03906;95864.28;;;;
2021/12/31 12:02:45;;;;;;;2.4;1.65;;;;;;;19.15;57.03906;95864.28;;;;
2021/12/31 12:03:45;;;;;;;2.4;1.65;;;;;;;19.15;57.03906;95864.28;;;;
2021/12/31 12:04:46;;;;;;;2.4;1.65;;;;;;;19.15;57.03906;95864.28;;;;
2021/12/31 12:06:06;;;;;;;2.4;1.65;;;;;;;19.15;57.03906;95864.28;;;;
2021/12/31 12:07:06;;;;;;;2.4;1.65;;;;;;;19.15;57.03906;95864.28;;;;
2021/12/31 12:08:11;;;;;;;2.4;1.65;;;;;;;19.15;57.03906;95864.28;;;;
2021/12/31 12:09:27;;;;;;;2.4;1.65;;;;;;;19.15;57.03906;95864.28;;;;
2021/12/31 12:11:11;;;;;;;3.05;2;;;;;;;19.16;56.76563;95855.79;;;;
2021/12/31 12:12:11;;;;;;;3.05;2;;;;;;;19.16;56.76563;95855.79;;;;
2021/12/31 12:13:13;;;;;;;3.05;2;;;;;;;19.16;56.76563;95855.79;;;;
2021/12/31 12:14:23;;;;;;;3.05;2;;;;;;;19.16;56.76563;95855.79;;;;
2021/12/31 12:15:29;;;;;;;3.05;2;;;;;;;19.16;56.76563;95855.79;;;;
2021/12/31 12:16:32;;;;;;;3.05;2;;;;;;;19.16;56.76563;95855.79;;;;
2021/12/31 12:17:55;;;;;;;3.05;2;;;;;;;19.16;56.76563;95855.79;;;;
2021/12/31 12:18:57;;;;;;;3.05;2;;;;;;;19.16;56.76563;95855.79;;;;
2021/12/31 12:19:57;;;;;;;3.05;2;;;;;;;19.16;56.76563;95855.79;;;;
2021/12/31 12:21:06;;;;;;;3.05;2;;;;;;;19.16;56.76563;95855.79;;;;
2021/12/31 12:22:07;;;;;;;2.3;1.3;;;;;;;19.02;56.57227;95841.02;;;;
2021/12/31 12:23:07;;;;;;;2.3;1.3;;;;;;;19.02;56.57227;95841.02;;;;
2021/12/31 12:24:23;;;;;;;2.3;1.3;;;;;;;19.02;56.57227;95841.02;;;;
2021/12/31 12:25:24;;;;;;;2.3;1.3;;;;;;;19.02;56.57227;95841.02;;;;
2021/12/31 12:26:26;;;;;;;2.3;1.3;;;;;;;19.02;56.57227;95841.02;;;;
2021/12/31 12:27:27;;;;;;;2.3;1.3;;;;;;;19.02;56.57227;95841.02;;;;
2021/12/31 12:28:28;;;;;;;2.3;1.3;;;;;;;19.02;56.57227;95841.02;;;;
2021/12/31 12:29:28;;;;;;;2.3;1.3;;;;;;;19.02;56.57227;95841.02;;;;
2021/12/31 12:30:29;;;;;;;2.3;1.3;;;;;;;19.02;56.57227;95841.02;;;;
2021/12/31 12:31:35;;;;;;;2.3;1.3;;;;;;;19.02;56.57227;95841.02;;;;
2021/12/31 12:32:38;;;;;;;1.45;1.3;;;;;;;19.06;56.65332;95809.81;;;;
2021/12/31 12:33:41;;;;;;;1.45;1.3;;;;;;;19.06;56.65332;95809.81;;;;
2021/12/31 12:34:42;;;;;;;1.45;1.3;;;;;;;19.06;56.65332;95809.81;;;;
2021/12/31 12:35:43;;;;;;;1.45;1.3;;;;;;;19.06;56.65332;95809.81;;;;
2021/12/31 12:36:45;;;;;;;1.45;1.3;;;;;;;19.06;56.65332;95809.81;;;;
2021/12/31 12:37:46;;;;;;;1.45;1.3;;;;;;;19.06;56.65332;95809.81;;;;
2021/12/31 12:38:55;;;;;;;1.45;1.3;;;;;;;19.06;56.65332;95809.81;;;;
2021/12/31 12:40:05;;;;;;;1.45;1.3;;;;;;;19.06;56.65332;95809.81;;;;
2021/12/31 12:41:09;;;;;;;1.45;1.3;;;;;;;19.06;56.65332;95809.81;;;;
2021/12/31 12:42:09;;;;;;;1.45;1.3;;;;;;;19.06;56.65332;95809.81;;;;
2021/12/31 12:43:12;;;;;;;1.45;1.3;;;;;;;19.06;56.65332;95809.81;;;;
2021/12/31 12:44:16;;;;;;;2.15;1.55;;;;;;;19.08;56.45898;95811.74;;;;
2021/12/31 12:45:17;;;;;;;2.15;1.55;;;;;;;19.08;56.45898;95811.74;;;;
2021/12/31 12:46:21;;;;;;;2.15;1.55;;;;;;;19.08;56.45898;95811.74;;;;
2021/12/31 12:47:22;;;;;;;2.15;1.55;;;;;;;19.08;56.45898;95811.74;;;;
2021/12/31 12:48:22;;;;;;;2.15;1.55;;;;;;;19.08;56.45898;95811.74;;;;
2021/12/31 12:49:34;;;;;;;2.15;1.55;;;;;;;19.08;56.45898;95811.74;;;;
2021/12/31 12:50:34;;;;;;;2.15;1.55;;;;;;;19.08;56.45898;95811.74;;;;
2021/12/31 12:51:37;;;;;;;2.15;1.55;;;;;;;19.08;56.45898;95811.74;;;;
2021/12/31 12:52:38;;;;;;;2.15;1.55;;;;;;;19.08;56.45898;95811.74;;;;
2021/12/31 12:53:38;;;;;;;2.15;1.55;;;;;;;19.08;56.45898;95811.74;;;;
2021/12/31 12:54:40;;;;;;;2.6;1.6;;;;;;;19.08;56.20801;95814.34;;;;
2021/12/31 12:55:43;;;;;;;2.6;1.6;;;;;;;19.08;56.20801;95814.34;;;;
2021/12/31 12:56:44;;;;;;;2.6;1.6;;;;;;;19.08;56.20801;95814.34;;;;
2021/12/31 12:57:44;;;;;;;2.6;1.6;;;;;;;19.08;56.20801;95814.34;;;;
2021/12/31 12:58:51;;;;;;;2.6;1.6;;;;;;;19.08;56.20801;95814.34;;;;
2021/12/31 12:59:53;;;;;;;2.6;1.6;;;;;;;19.08;56.20801;95814.34;;;;
2021/12/31 13:00:53;;;;;;;2.6;1.6;;;;;;;19.08;56.20801;95814.34;;;;
2021/12/31 13:01:57;;;;;;;2.6;1.6;;;;;;;19.08;56.20801;95814.34;;;;
2021/12/31 13:02:57;;;;;;;2.6;1.6;;;;;;;19.08;56.20801;95814.34;;;;
2021/12/31 13:04:06;;;;;;;2.6;1.6;;;;;;;19.08;56.20801;95814.34;;;;
2021/12/31 13:05:08;;;;;;;2.6;1.6;;;;;;;19.08;56.20801;95814.34;;;;
2021/12/31 13:06:11;;;;;;;2.15;1.6;;;;;;;19.12;56.05762;95820.09;;;;
2021/12/31 13:07:12;;;;;;;2.15;1.6;;;;;;;19.12;56.05762;95820.09;;;;
2021/12/31 13:08:21;;;;;;;2.15;1.6;;;;;;;19.12;56.05762;95820.09;;;;
2021/12/31 13:09:23;;;;;;;2.15;1.6;;;;;;;19.12;56.05762;95820.09;;;;
2021/12/31 13:10:28;;;;;;;2.15;1.6;;;;;;;19.12;56.05762;95820.09;;;;
2021/12/31 13:11:31;;;;;;;2.15;1.6;;;;;;;19.12;56.05762;95820.09;;;;
2021/12/31 13:12:33;;;;;;;2.15;1.6;;;;;;;19.12;56.05762;95820.09;;;;
2021/12/31 13:13:34;;;;;;;2.15;1.6;;;;;;;19.12;56.05762;95820.09;;;;
2021/12/31 13:14:36;;;;;;;2.15;1.6;;;;;;;19.12;56.05762;95820.09;;;;
2021/12/31 13:15:37;;;;;;;2.15;1.6;;;;;;;19.12;56.05762;95820.09;;;;
2021/12/31 13:16:38;;;;;;;2;1.7;;;;;;;19.1;55.91211;95812.7;;;;
2021/12/31 13:17:39;;;;;;;2;1.7;;;;;;;19.1;55.91211;95812.7;;;;
2021/12/31 13:18:41;;;;;;;2;1.7;;;;;;;19.1;55.91211;95812.7;;;;
2021/12/31 13:19:44;;;;;;;2;1.7;;;;;;;19.1;55.91211;95812.7;;;;
2021/12/31 13:20:45;;;;;;;2;1.7;;;;;;;19.1;55.91211;95812.7;;;;
2021/12/31 13:21:46;;;;;;;2;1.7;;;;;;;19.1;55.91211;95812.7;;;;
2021/12/31 13:22:57;;;;;;;2;1.7;;;;;;;19.1;55.91211;95812.7;;;;
2021/12/31 13:23:59;;;;;;;2;1.7;;;;;;;19.1;55.91211;95812.7;;;;
2021/12/31 13:25:00;;;;;;;2;1.7;;;;;;;19.1;55.91211;95812.7;;;;
2021/12/31 13:26:01;;;;;;;2;1.7;;;;;;;19.1;55.91211;95812.7;;;;
2021/12/31 13:27:20;;;;;;;2.35;1.55;;;;;;;19.15;55.66699;95826.37;;;;
2021/12/31 13:28:21;;;;;;;2.35;1.55;;;;;;;19.15;55.66699;95826.37;;;;
2021/12/31 13:29:23;;;;;;;2.35;1.55;;;;;;;19.15;55.66699;95826.37;;;;
2021/12/31 13:30:33;;;;;;;2.35;1.55;;;;;;;19.15;55.66699;95826.37;;;;
2021/12/31 13:31:46;;;;;;;2.35;1.55;;;;;;;19.15;55.66699;95826.37;;;;
2021/12/31 13:32:47;;;;;;;2.35;1.55;;;;;;;19.15;55.66699;95826.37;;;;
2021/12/31 13:33:48;;;;;;;2.35;1.55;;;;;;;19.15;55.66699;95826.37;;;;
2021/12/31 13:34:49;;;;;;;2.35;1.55;;;;;;;19.15;55.66699;95826.37;;;;
2021/12/31 13:35:51;;;;;;;2.35;1.55;;;;;;;19.15;55.66699;95826.37;;;;
2021/12/31 13:37:25;;;;;;;2.35;1.55;;;;;;;19.15;55.66699;95826.37;;;;
2021/12/31 13:38:30;;;;;;;2;1.4;;;;;;;19.18;55.62695;95837.59;;;;
2021/12/31 13:39:31;;;;;;;2;1.4;;;;;;;19.18;55.62695;95837.59;;;;
2021/12/31 13:40:34;;;;;;;2;1.4;;;;;;;19.18;55.62695;95837.59;;;;
2021/12/31 13:41:35;;;;;;;2;1.4;;;;;;;19.18;55.62695;95837.59;;;;
2021/12/31 13:42:45;;;;;;;2;1.4;;;;;;;19.18;55.62695;95837.59;;;;
2021/12/31 13:43:58;;;;;;;2;1.4;;;;;;;19.18;55.62695;95837.59;;;;
2021/12/31 13:45:01;;;;;;;2;1.4;;;;;;;19.18;55.62695;95837.59;;;;
2021/12/31 13:46:03;;;;;;;2;1.4;;;;;;;19.18;55.62695;95837.59;;;;
2021/12/31 13:47:11;;;;;;;2;1.4;;;;;;;19.18;55.62695;95837.59;;;;
2021/12/31 13:48:14;;;;;;;2;1.4;;;;;;;19.18;55.62695;95837.59;;;;
2021/12/31 13:49:14;;;;;;;2.1;1.6;;;;;;;19.13;55.81836;95856.76;;;;
2021/12/31 13:50:21;;;;;;;2.1;1.6;;;;;;;19.13;55.81836;95856.76;;;;
2021/12/31 13:51:22;;;;;;;2.1;1.6;;;;;;;19.13;55.81836;95856.76;;;;
2021/12/31 13:52:27;;;;;;;2.1;1.6;;;;;;;19.13;55.81836;95856.76;;;;
2021/12/31 13:53:31;;;;;;;2.1;1.6;;;;;;;19.13;55.81836;95856.76;;;;
2021/12/31 13:54:31;;;;;;;2.1;1.6;;;;;;;19.13;55.81836;95856.76;;;;
2021/12/31 13:55:39;;;;;;;2.1;1.6;;;;;;;19.13;55.81836;95856.76;;;;
2021/12/31 13:56:47;;;;;;;2.1;1.6;;;;;;;19.13;55.81836;95856.76;;;;
2021/12/31 13:57:49;;;;;;;2.1;1.6;;;;;;;19.13;55.81836;95856.76;;;;
2021/12/31 13:58:52;;;;;;;2.1;1.6;;;;;;;19.13;55.81836;95856.76;;;;
2021/12/31 13:59:52;;;;;;;2.1;1.6;;;;;;;19.13;55.81836;95856.76;;;;
2021/12/31 14:00:54;;;;;;;2.5;1.6;;;;;;;19.15;55.66699;95857.86;;;;
2021/12/31 14:01:55;;;;;;;2.5;1.6;;;;;;;19.15;55.66699;95857.86;;;;
2021/12/31 14:03:13;;;;;;;2.5;1.6;;;;;;;19.15;55.66699;95857.86;;;;
2021/12/31 14:04:17;;;;;;;2.5;1.6;;;;;;;19.15;55.66699;95857.86;;;;
2021/12/31 14:05:17;;;;;;;2.5;1.6;;;;;;;19.15;55.66699;95857.86;;;;
2021/12/31 14:06:20;;;;;;;2.5;1.6;;;;;;;19.15;55.66699;95857.86;;;;
2021/12/31 14:07:28;;;;;;;2.25;1.65;;;;;;;19.24;56.67676;95852.92;;;;
2021/12/31 14:08:42;;;;;;;2.25;1.65;;;;;;;19.24;56.67676;95852.92;;;;
2021/12/31 14:09:42;;;;;;;2.25;1.65;;;;;;;19.24;56.67676;95852.92;;;;
2021/12/31 14:10:44;;;;;;;2.25;1.65;;;;;;;19.24;56.67676;95852.92;;;;
2021/12/31 14:11:45;;;;;;;2.25;1.65;;;;;;;19.24;56.67676;95852.92;;;;
2021/12/31 14:12:45;;;;;;;2.25;1.65;;;;;;;19.24;56.67676;95852.92;;;;
2021/12/31 14:13:50;;;;;;;2.25;1.65;;;;;;;19.24;56.67676;95852.92;;;;
2021/12/31 14:14:50;;;;;;;2.25;1.65;;;;;;;19.24;56.67676;95852.92;;;;
2021/12/31 14:15:51;;;;;;;2.25;1.65;;;;;;;19.24;56.67676;95852.92;;;;
2021/12/31 14:16:51;;;;;;;2.25;1.65;;;;;;;19.24;56.67676;95852.92;;;;
2021/12/31 14:17:53;;;;;;;1.7;1.4;;;;;;;19.35;65.15332;95823.63;;;;
2021/12/31 14:18:56;;;;;;;1.7;1.4;;;;;;;19.35;65.15332;95823.63;;;;
2021/12/31 14:19:56;;;;;;;1.7;1.4;;;;;;;19.35;65.15332;95823.63;;;;
2021/12/31 14:20:57;;;;;;;1.7;1.4;;;;;;;19.35;65.15332;95823.63;;;;
2021/12/31 14:21:57;;;;;;;1.7;1.4;;;;;;;19.35;65.15332;95823.63;;;;
2021/12/31 14:22:58;;;;;;;1.7;1.4;;;;;;;19.35;65.15332;95823.63;;;;
2021/12/31 14:23:59;;;;;;;1.7;1.4;;;;;;;19.35;65.15332;95823.63;;;;
2021/12/31 14:24:59;;;;;;;1.7;1.4;;;;;;;19.35;65.15332;95823.63;;;;
2021/12/31 14:26:00;;;;;;;1.7;1.4;;;;;;;19.35;65.15332;95823.63;;;;
2021/12/31 14:27:02;;;;;;;1.7;1.4;;;;;;;19.35;65.15332;95823.63;;;;
2021/12/31 14:28:05;;;;;;;1.7;1.4;;;;;;;19.35;65.15332;95823.63;;;;
2021/12/31 14:29:05;;;;;;;1.35;1.25;;;;;;;17.23;67.91406;95841.57;;;;
2021/12/31 14:30:07;;;;;;;1.35;1.25;;;;;;;17.23;67.91406;95841.57;;;;
2021/12/31 14:31:08;;;;;;;1.35;1.25;;;;;;;17.23;67.91406;95841.57;;;;
2021/12/31 14:32:09;;;;;;;1.35;1.25;;;;;;;17.23;67.91406;95841.57;;;;
2021/12/31 14:33:09;;;;;;;1.35;1.25;;;;;;;17.23;67.91406;95841.57;;;;
2021/12/31 14:34:10;;;;;;;1.35;1.25;;;;;;;17.23;67.91406;95841.57;;;;
2021/12/31 14:35:13;;;;;;;1.35;1.25;;;;;;;17.23;67.91406;95841.57;;;;
2021/12/31 14:36:14;;;;;;;1.35;1.25;;;;;;;17.23;67.91406;95841.57;;;;
2021/12/31 14:37:14;;;;;;;1.35;1.25;;;;;;;17.23;67.91406;95841.57;;;;
2021/12/31 14:38:19;;;;;;;1.35;1.25;;;;;;;17.23;67.91406;95841.57;;;;
2021/12/31 14:39:21;;;;;;;1.35;1.25;;;;;;;17.23;67.91406;95841.57;;;;
2021/12/31 14:40:22;;;;;;;1.6;1.5;;;;;;;15.53;70.98145;95834.74;;;;
2021/12/31 14:41:23;;;;;;;1.6;1.5;;;;;;;15.53;70.98145;95834.74;;;;
2021/12/31 14:42:24;;;;;;;1.6;1.5;;;;;;;15.53;70.98145;95834.74;;;;
2021/12/31 14:43:28;;;;;;;1.6;1.5;;;;;;;15.53;70.98145;95834.74;;;;
2021/12/31 14:44:28;;;;;;;1.6;1.5;;;;;;;15.53;70.98145;95834.74;;;;
2021/12/31 14:45:29;;;;;;;1.6;1.5;;;;;;;15.53;70.98145;95834.74;;;;
2021/12/31 14:46:34;;;;;;;1.6;1.5;;;;;;;15.53;70.98145;95834.74;;;;
2021/12/31 14:47:34;;;;;;;1.6;1.5;;;;;;;15.53;70.98145;95834.74;;;;
2021/12/31 14:48:35;;;;;;;1.6;1.5;;;;;;;15.53;70.98145;95834.74;;;;
2021/12/31 14:49:36;;;;;;;1.6;1.5;;;;;;;15.53;70.98145;95834.74;;;;
2021/12/31 14:50:36;;;;;;;1.6;1.5;;;;;;;14.23;73.84961;95811.8;;;;
2021/12/31 14:51:37;;;;;;;1.6;1.5;;;;;;;14.23;73.84961;95811.8;;;;
2021/12/31 14:52:38;;;;;;;1.6;1.5;;;;;;;14.23;73.84961;95811.8;;;;
2021/12/31 14:53:41;;;;;;;1.6;1.5;;;;;;;14.23;73.84961;95811.8;;;;
2021/12/31 14:54:41;;;;;;;1.6;1.5;;;;;;;14.23;73.84961;95811.8;;;;
2021/12/31 14:55:43;;;;;;;1.6;1.5;;;;;;;14.23;73.84961;95811.8;;;;
2021/12/31 14:56:46;;;;;;;1.6;1.5;;;;;;;14.23;73.84961;95811.8;;;;
2021/12/31 14:57:48;;;;;;;1.6;1.5;;;;;;;14.23;73.84961;95811.8;;;;
2021/12/31 14:58:49;;;;;;;1.6;1.5;;;;;;;14.23;73.84961;95811.8;;;;
2021/12/31 14:59:49;;;;;;;1.6;1.5;;;;;;;14.23;73.84961;95811.8;;;;
2021/12/31 15:00:50;;;;;;;1.6;1.5;;;;;;;14.23;73.84961;95811.8;;;;
2021/12/31 15:01:50;;;;;;;2.15;1.7;;;;;;;13.38;76.55957;95798.38;;;;
2021/12/31 15:02:51;;;;;;;2.15;1.7;;;;;;;13.38;76.55957;95798.38;;;;
2021/12/31 15:03:52;;;;;;;2.15;1.7;;;;;;;13.38;76.55957;95798.38;;;;
2021/12/31 15:04:53;;;;;;;2.15;1.7;;;;;;;13.38;76.55957;95798.38;;;;
2021/12/31 15:05:53;;;;;;;2.15;1.7;;;;;;;13.38;76.55957;95798.38;;;;
2021/12/31 15:06:55;;;;;;;2.15;1.7;;;;;;;13.38;76.55957;95798.38;;;;
2021/12/31 15:08:00;;;;;;;2.15;1.7;;;;;;;13.38;76.55957;95798.38;;;;
2021/12/31 15:09:01;;;;;;;2.15;1.7;;;;;;;13.38;76.55957;95798.38;;;;
2021/12/31 15:10:03;;;;;;;2.15;1.7;;;;;;;13.38;76.55957;95798.38;;;;
2021/12/31 15:11:05;;;;;;;2.15;1.7;;;;;;;13.38;76.55957;95798.38;;;;
2021/12/31 15:12:06;;;;;;;2.15;1.7;;;;;;;13.38;76.55957;95798.38;;;;
2021/12/31 15:13:08;;;;;;;1.7;1.6;;;;;;;12.84;78.63672;95794.2;;;;
2021/12/31 15:14:08;;;;;;;1.7;1.6;;;;;;;12.84;78.63672;95794.2;;;;
2021/12/31 15:15:09;;;;;;;1.7;1.6;;;;;;;12.84;78.63672;95794.2;;;;
2021/12/31 15:16:10;;;;;;;1.7;1.6;;;;;;;12.84;78.63672;95794.2;;;;
2021/12/31 15:17:13;;;;;;;1.7;1.6;;;;;;;12.84;78.63672;95794.2;;;;
2021/12/31 15:18:13;;;;;;;1.7;1.6;;;;;;;12.84;78.63672;95794.2;;;;
2021/12/31 15:19:14;;;;;;;1.7;1.6;;;;;;;12.84;78.63672;95794.2;;;;
2021/12/31 15:20:15;;;;;;;1.7;1.6;;;;;;;12.84;78.63672;95794.2;;;;
2021/12/31 15:21:15;;;;;;;1.7;1.6;;;;;;;12.84;78.63672;95794.2;;;;
2021/12/31 15:22:19;;;;;;;1.7;1.6;;;;;;;12.84;78.63672;95794.2;;;;
2021/12/31 15:23:19;;;;;;;2.25;1.65;;;;;;;12.37;80.46191;95781.72;;;;
2021/12/31 15:24:22;;;;;;;2.25;1.65;;;;;;;12.37;80.46191;95781.72;;;;
2021/12/31 15:25:23;;;;;;;2.25;1.65;;;;;;;12.37;80.46191;95781.72;;;;
2021/12/31 15:26:23;;;;;;;2.25;1.65;;;;;;;12.37;80.46191;95781.72;;;;
2021/12/31 15:27:24;;;;;;;2.25;1.65;;;;;;;12.37;80.46191;95781.72;;;;
2021/12/31 15:28:24;;;;;;;2.25;1.65;;;;;;;12.37;80.46191;95781.72;;;;
2021/12/31 15:29:25;;;;;;;2.25;1.65;;;;;;;12.37;80.46191;95781.72;;;;
2021/12/31 15:30:26;;;;;;;2.25;1.65;;;;;;;12.37;80.46191;95781.72;;;;
2021/12/31 15:31:26;;;;;;;2.25;1.65;;;;;;;12.37;80.46191;95781.72;;;;
2021/12/31 15:32:27;;;;;;;2.25;1.65;;;;;;;12.37;80.46191;95781.72;;;;
2021/12/31 15:33:27;;;;;;;2.25;1.65;;;;;;;12.37;80.46191;95781.72;;;;
2021/12/31 15:34:29;;;;;;;3.2;2.4;;;;;;;11.88;82.22461;95771.7;;;;
2021/12/31 15:35:30;;;;;;;3.2;2.4;;;;;;;11.88;82.22461;95771.7;;;;
2021/12/31 15:36:32;;;;;;;3.2;2.4;;;;;;;11.88;82.22461;95771.7;;;;
2021/12/31 15:37:34;;;;;;;3.2;2.4;;;;;;;11.88;82.22461;95771.7;;;;
2021/12/31 15:38:35;;;;;;;3.2;2.4;;;;;;;11.88;82.22461;95771.7;;;;
2021/12/31 15:39:37;;;;;;;3.2;2.4;;;;;;;11.88;82.22461;95771.7;;;;
2021/12/31 15:40:37;;;;;;;3.2;2.4;;;;;;;11.88;82.22461;95771.7;;;;
2021/12/31 15:41:38;;;;;;;3.2;2.4;;;;;;;11.88;82.22461;95771.7;;;;